Tiempo atmosférico en la estación meteorológica de Orihuela, Alacant/Alicante (26 m.)



Fecha
DESCASC
Temp. máxima en grados centígrados (hora)
DESCASC
Temp. mínima en grados centígrados (hora)
DESCASC
Temp. media en grados centígrados
DESCASC
Racha de viento máxima en m/sg (hora)
DESCASC
Velocidad máxima media en intervalos de 10 minutos(hora)
DESCASC
Precipitaciones diarias en mm
DESCASC
Precipitaciones de 00:00 a 06:00 en mm
DESCASC
Precipitaciones de 06:00 a 12:00 en mm
DESCASC
Precipitaciones de 12:00 a 18:00 en mm
DESCASC
Precipitaciones de 18:00 a 24:00 en mm
DESCASC
16-01-2020 17.7 (16:20) 3.9 (04:50) 10.8 3.89 (05:40) 1.94 (00:20) 0 0 0 0 0
15-01-2020 16.6 (16:00) 1.6 (04:10) 9.1 5.56 (11:20) 3.33 (11:30) 0 0 0 0 0
14-01-2020 15.4 (14:20) 0.7 (08:20) 8 5.83 (10:30) 3.33 (11:00) 0 0 0 0 0
13-01-2020 14.9 (15:50) 2 (04:10) 8.4 5 (15:00) 2.5 (13:10) 0 0 0 0 0
12-01-2020 16.2 (14:10) 3 (00:00) 9.6 7.22 (08:30) 4.44 (08:20) 0 0 0 0 0
11-01-2020 16.3 (13:30) 5.6 (00:00) 10.9 5.28 (17:20) 2.78 (17:20) 0 0 0 0 0
10-01-2020 16.2 (15:50) 5.3 (00:00) 10.8 10.83 (19:50) 4.72 (18:50) 0 0 0 0 0
09-01-2020 15.6 (14:10) 7.3 (00:00) 11.5 4.17 (12:10) 2.22 (12:00) 0 0 0 0 0
08-01-2020 14.9 (15:10) 1.4 (00:00) 8.1 7.22 (13:10) 3.61 (13:10) 0 0 0 0 0
07-01-2020 14.3 (15:50) 0.7 (00:00) 7.5 2.5 (14:50) 1.67 (23:59) 0 0 0 0 0
06-01-2020 14.7 (16:20) 1.2 (00:00) 7.9 3.33 (12:20) 1.67 (11:20) 0 0 0 0 0
05-01-2020 15.5 (16:00) 1.7 (00:00) 8.6 4.72 (13:10) 2.5 (11:10) 0 0 0 0 0
04-01-2020 14.5 (15:50) 5.6 (00:00) 10 5.28 (05:40) 3.33 (07:40) 0 0 0 0 0
03-01-2020 16.7 (16:10) 4.4 (00:00) 10.6 4.44 (02:20) 3.33 (02:20) 0 0 0 0 0
02-01-2020 13.1 (15:50) 6.9 (00:00) 10 4.72 (23:20) 2.22 (22:40) 0 0 0 0 0
01-01-2020 14.4 (16:30) 3.3 (00:00) 8.8 4.17 (10:40) 2.5 (10:40) 0 0 0 0 0
31-12-2019 14.1 (16:20) 4 (00:00) 9.1 4.17 (11:50) 2.5 (11:50) 0 0 0 0 0
30-12-2019 15.5 (14:00) 6 (00:00) 10.8 -- (--) -- (--) 0 0 0 0 0
29-12-2019 15.2 (15:00) 6.3 (00:00) 10.8 3.61 (11:30) 2.22 (11:30) 0 0 0 0 0
28-12-2019 15.7 (14:20) 6 (00:00) 10.8 6.11 (14:50) 3.89 (14:50) 0 0 0 0 0
27-12-2019 17.2 (13:50) 6.1 (00:00) 11.7 2.22 (21:40) 1.39 (00:40) 0 0 0 0 0
26-12-2019 23.7 (14:50) 8.5 (00:00) 16.1 7.22 (12:10) 5 (10:10) 0 0 0 0 0
25-12-2019 19 (16:00) 6.5 (00:00) 12.8 3.61 (12:30) 2.22 (12:10) 0 0 0 0 0
24-12-2019 21.7 (16:00) 7.1 (00:00) 14.4 7.78 (12:10) 5.28 (12:10) 0 0 0 0 0
23-12-2019 21 (15:10) 8.8 (00:00) 14.9 11.67 (02:00) 5.83 (02:00) 0 0 0 0 0
22-12-2019 22.5 (14:50) 13.3 (00:00) 17.9 18.61 (19:00) 9.17 (19:10) 0 0 0 0 0
21-12-2019 22.3 (15:40) 12.2 (00:00) 17.2 14.72 (22:10) 6.67 (23:00) 0 0 0 0 0
20-12-2019 19.4 (13:10) 9.1 (00:00) 14.3 5 (10:50) 1.67 (05:30) 0.8 0 0 0.8 0
19-12-2019 12.2 (14:10) 5.1 (05:00) 8.6 3.61 (02:40) 1.94 (12:20) 0 0 0 0 0

Gráficas

Temp. máximas Temp. mínimas Temp. medias Precipitaciones Rachas de viento máximas Velocidades máximas media en intervalos de 10 minutos

Datos horarios

Fecha y hora oficial Temperatura (ºC) Velocidad del viento (km/h) Dirección del viento Racha (km/h) Dirección de racha Precipitación (mm) Presión (hPa) Tendencia (hPa) Humedad (%)
2020-01-17 23:00:00 -- -- -- -- -- -- -- -- --
2020-01-17 22:00:00 -- -- -- -- -- -- -- -- --
2020-01-17 21:00:00 -- -- -- -- -- -- -- -- --
2020-01-17 20:00:00 15.2 3 Noroeste 14 Sudoeste 0 -- -- 50
2020-01-17 19:00:00 16.4 6 Sudoeste 22 Oeste 0 -- -- 47
2020-01-17 18:00:00 18.5 11 Noroeste 25 Oeste 0 -- -- 40
2020-01-17 17:00:00 19.1 12 Noroeste 33 Noroeste 0 -- -- 37
2020-01-17 16:00:00 19.7 11 Oeste 30 Sudoeste 0 -- -- 38
2020-01-17 15:00:00 19.3 10 Sudoeste 30 Sudoeste 0 -- -- 39
2020-01-17 14:00:00 19.3 10 Oeste 24 Oeste 0 -- -- 36
2020-01-17 13:00:00 18 8 Sudoeste 19 Oeste 0 -- -- 39
2020-01-17 12:00:00 14.1 5 Sudoeste 14 Sudoeste 0 -- -- 53
2020-01-17 11:00:00 9.3 5 Sudoeste 8 Sudoeste 0 -- -- 71
2020-01-17 10:00:00 6.4 3 Oeste 14 Sudoeste 0 -- -- 79
2020-01-17 09:00:00 5.7 6 Oeste 14 Oeste 0 -- -- 81
2020-01-17 08:00:00 3.5 2 Oeste 4 Sudoeste 0 -- -- 89
2020-01-17 07:00:00 4 2 Oeste 7 Oeste 0 -- -- 86
2020-01-17 06:00:00 4.3 2 Oeste 9 Oeste 0 -- -- 85
2020-01-17 05:00:00 5 3 Oeste 9 Sudoeste 0 -- -- 84
2020-01-17 04:00:00 5.1 3 Oeste 14 Sudoeste 0 -- -- 84
2020-01-17 03:00:00 5.5 3 Oeste 7 Oeste 0 -- -- 86
2020-01-17 02:00:00 5.5 2 Noroeste 12 Sudoeste 0 -- -- 82
2020-01-17 01:00:00 6.4 3 Sudoeste 7 Sudoeste 0 -- -- 84
2020-01-17 00:00:00 6.2 2 Oeste 6 Sudoeste 0 -- -- 83
2020-01-16 23:00:00 6.9 3 Sudoeste 5 Sudoeste 0 -- -- 83
2020-01-16 22:00:00 7.9 2 Oeste 6 Sudoeste 0 -- -- 80
2020-01-16 21:00:00 8.7 3 Sudoeste 6 Sudoeste 0 -- -- 75
2020-01-16 20:00:00 10.4 0 Calma 4 Sudoeste 0 -- -- 72
2020-01-16 19:00:00 12.7 3 Oeste 5 Sudoeste 0 -- -- 63
2020-01-16 18:00:00 16 3 Sudeste 6 Sudeste 0 -- -- 51
2020-01-16 17:00:00 17.2 0 Calma 5 Noroeste 0 -- -- 43
2020-01-16 16:00:00 17.5 0 Calma 10 Oeste 0 -- -- 41
2020-01-16 15:00:00 17.3 2 Sudeste 6 Sudoeste 0 -- -- 43
2020-01-16 14:00:00 17 3 Noroeste 8 Sudoeste 0 -- -- 45
2020-01-16 13:00:00 15.9 5 Sudoeste 10 Sudoeste 0 -- -- 42
2020-01-16 12:00:00 13.7 4 Sudoeste 10 Sudoeste 0 -- -- 49
2020-01-16 11:00:00 10.2 5 Sudoeste 13 Sudoeste 0 -- -- 61
2020-01-16 10:00:00 6.6 3 Sur 7 Sudoeste 0 -- -- 75
2020-01-16 09:00:00 4.6 2 Sur 12 Sudoeste 0 -- -- 81
2020-01-16 08:00:00 4.4 5 Sudoeste 13 Sudoeste 0 -- -- 81
2020-01-16 07:00:00 4.3 4 Oeste 12 Sudoeste 0 -- -- 83
2020-01-16 06:00:00 4.3 4 Oeste 14 Oeste 0 -- -- 83
2020-01-16 05:00:00 4 3 Oeste 8 Sudoeste 0 -- -- 86
2020-01-16 04:00:00 4.3 0 Calma 7 Oeste 0 -- -- 84
2020-01-16 03:00:00 4.3 2 Oeste 5 Sudoeste 0 -- -- 85
2020-01-16 02:00:00 5 3 Sudoeste 8 Sudoeste 0 -- -- 83
2020-01-16 01:00:00 6.4 3 Sudoeste 10 Sudoeste 0 -- -- 78
2020-01-16 00:00:00 7.2 4 Oeste 8 Oeste 0 -- -- 76
2020-01-15 23:00:00 7.2 3 Sudoeste 8 Sudoeste 0 -- -- 76
2020-01-15 22:00:00 8.1 0 Calma 8 Sudoeste 0 -- -- 73
2020-01-15 21:00:00 8.3 4 Sudoeste 8 Sudoeste 0 -- -- 75
2020-01-15 20:00:00 9.1 0 Calma 4 Sur 0 -- -- 71
2020-01-15 19:00:00 11.7 0 Calma 5 Oeste 0 -- -- 62
2020-01-15 18:00:00 15.4 2 Sudoeste 5 Sudoeste 0 -- -- 50
2020-01-15 17:00:00 16.3 0 Calma 9 Sudoeste 0 -- -- 45
2020-01-15 16:00:00 16.6 5 Sudoeste 13 Sudoeste 0 -- -- 42
2020-01-15 15:00:00 15.8 4 Sudoeste 14 Sudoeste 0 -- -- 43
2020-01-15 14:00:00 14.9 7 Sudoeste 14 Sudoeste 0 -- -- 44
2020-01-15 13:00:00 13.5 7 Sudoeste 17 Sudoeste 0 -- -- 50
2020-01-15 12:00:00 11.1 10 Sudoeste 20 Sudoeste 0 -- -- 57
2020-01-15 11:00:00 9.6 9 Sudoeste 18 Sudoeste 0 -- -- 62
2020-01-15 10:00:00 5.7 3 Sur 12 Sudoeste 0 -- -- 76
2020-01-15 09:00:00 3.4 5 Sudoeste 10 Sudoeste 0 -- -- 84
2020-01-15 08:00:00 3.4 2 Oeste 9 Sudoeste 0 -- -- 81
2020-01-15 07:00:00 3.6 2 Sur 11 Sudoeste 0 -- -- 83
2020-01-15 06:00:00 2.5 3 Oeste 6 Sur 0 -- -- 89
2020-01-15 05:00:00 2 0 Calma 4 Norte 0 -- -- 89
2020-01-15 04:00:00 1.8 0 Calma 4 Sudeste 0 -- -- 89
2020-01-15 03:00:00 2.7 0 Calma 3 Sur 0 -- -- 85
2020-01-15 02:00:00 3.8 2 Sudoeste 5 Sudoeste 0 -- -- 84
2020-01-15 01:00:00 3.4 0 Calma 5 Sudoeste 0 -- -- 83
2020-01-15 00:00:00 5.3 4 Sudoeste 9 Sudoeste 0 -- -- 79
2020-01-14 23:00:00 5.1 3 Sudoeste 6 Sudoeste 0 -- -- 79
2020-01-14 22:00:00 6.7 4 Sudoeste 9 Sudoeste 0 -- -- 75
2020-01-14 21:00:00 7.5 2 Sudoeste 8 Sudoeste 0 -- -- 78
2020-01-14 20:00:00 9.1 3 Sudoeste 6 Sudoeste 0 -- -- 76
2020-01-14 19:00:00 9.3 2 Oeste 6 Sur 0 -- -- 71
2020-01-14 18:00:00 12.3 0 Calma 5 Sudeste 0 -- -- 50
2020-01-14 17:00:00 14.8 2 Sudoeste 13 Sudoeste 0 -- -- 40
2020-01-14 16:00:00 15.3 3 Oeste 12 Sudoeste 0 -- -- 36
2020-01-14 15:00:00 15.2 5 Noroeste 17 Oeste 0 -- -- 35
2020-01-14 14:00:00 15.1 8 Sudoeste 18 Oeste 0 -- -- 37
2020-01-14 13:00:00 13.7 8 Oeste 17 Sudoeste 0 -- -- 44
2020-01-14 12:00:00 11.4 9 Sudoeste 19 Sudoeste 0 -- -- 50
2020-01-14 11:00:00 8.5 12 Sudoeste 21 Sudoeste 0 -- -- 60
2020-01-14 10:00:00 4.1 3 Sudoeste 15 Sudoeste 0 -- -- 82
2020-01-14 09:00:00 2.2 4 Oeste 15 Sudoeste 0 -- -- 84
2020-01-14 08:00:00 1 0 Calma 5 Sudoeste 0 -- -- 87
2020-01-14 07:00:00 2 4 Oeste 6 Sudoeste 0 -- -- 89
2020-01-14 06:00:00 2.8 4 Sur 10 Sur 0 -- -- 87
2020-01-14 05:00:00 2.4 0 Calma 5 Sudoeste 0 -- -- 90
2020-01-14 04:00:00 3 2 Sudoeste 5 Sudoeste 0 -- -- 90
2020-01-14 03:00:00 4 0 Calma 9 Oeste 0 -- -- 89
2020-01-14 02:00:00 3.6 3 Oeste 6 Oeste 0 -- -- 92
2020-01-14 01:00:00 4.6 0 Calma 5 Sudoeste 0 -- -- 87
2020-01-14 00:00:00 5.1 2 Oeste 5 Sudoeste 0 -- -- 87
2020-01-13 23:00:00 6.4 0 Calma 5 Sudoeste 0 -- -- 83
2020-01-13 22:00:00 7.5 3 Sudoeste 9 Sudoeste 0 -- -- 81
2020-01-13 21:00:00 7.5 3 Sudoeste 5 Sudoeste 0 -- -- 82
2020-01-13 20:00:00 9.1 0 Calma 4 Sudoeste 0 -- -- 80
2020-01-13 19:00:00 10.4 0 Calma 4 Sudeste 0 -- -- 76
2020-01-13 18:00:00 13.1 0 Calma 7 Sudeste 0 -- -- 66
2020-01-13 17:00:00 14.5 3 Oeste 14 Sudoeste 0 -- -- 54
2020-01-13 16:00:00 14.9 9 Sudoeste 17 Sudoeste 0 -- -- 51
2020-01-13 15:00:00 14.1 8 Sudoeste 18 Sudoeste 0 -- -- 52
2020-01-13 14:00:00 13.4 6 Sudoeste 16 Sudoeste 0 -- -- 49
2020-01-13 13:00:00 11.8 5 Sudoeste 14 Sudoeste 0 -- -- 54
2020-01-13 12:00:00 9.5 5 Sudoeste 12 Sudoeste 0 -- -- 62
2020-01-13 11:00:00 6.5 6 Sudoeste 11 Sudoeste 0 -- -- 75
2020-01-13 10:00:00 3.9 3 Sur 9 Sudoeste 0 -- -- 88
2020-01-13 09:00:00 2.2 3 Oeste 9 Sudoeste 0 -- -- 90
2020-01-13 08:00:00 2.3 3 Sudoeste 11 Oeste 0 -- -- 91
2020-01-13 07:00:00 2.7 3 Sudoeste 11 Sudoeste 0 -- -- 92
2020-01-13 06:00:00 2 3 Oeste 6 Oeste 0 -- -- 92
2020-01-13 05:00:00 2.6 3 Oeste 5 Oeste 0 -- -- 92
2020-01-13 04:00:00 2.3 0 Calma 5 Sudoeste 0 -- -- 91
2020-01-13 03:00:00 3.3 4 Sudoeste 6 Sudoeste 0 -- -- 92
2020-01-13 02:00:00 3.6 0 Calma 6 Sudoeste 0 -- -- 90
2020-01-13 01:00:00 4 2 Sudoeste 5 Sudoeste 0 -- -- 89
2020-01-13 00:00:00 5.3 2 Sudoeste 6 Sudoeste 0 -- -- 89
2020-01-12 23:00:00 6.5 3 Sudoeste 7 Oeste 0 -- -- 89
2020-01-12 22:00:00 7.3 0 Calma 8 Este 0 -- -- 85
2020-01-12 21:00:00 8.2 4 Este 8 Este 0 -- -- 85
2020-01-12 20:00:00 9 6 Nordeste 11 Nordeste 0 -- -- 82
2020-01-12 19:00:00 10.3 6 Nordeste 15 Nordeste 0 -- -- 75
2020-01-12 18:00:00 12.2 9 Nordeste 17 Este 0 -- -- 66
2020-01-12 17:00:00 14.2 9 Este 25 Nordeste 0 -- -- 60
2020-01-12 16:00:00 16 12 Nordeste 20 Nordeste 0 -- -- 47
2020-01-12 15:00:00 16.1 4 Este 16 Sudoeste 0 -- -- 35
2020-01-12 14:00:00 16.1 8 Sudoeste 23 Sudoeste 0 -- -- 34
2020-01-12 13:00:00 14.8 12 Sudoeste 24 Sudoeste 0 -- -- 37
2020-01-12 12:00:00 12.3 7 Sudoeste 19 Sudoeste 0 -- -- 51
2020-01-12 11:00:00 8.5 8 Sudoeste 15 Sudoeste 0 -- -- 66
2020-01-12 10:00:00 5.3 9 Sudoeste 20 Sudoeste 0 -- -- 78
2020-01-12 09:00:00 4.2 4 Sudoeste 26 Sudoeste 0 -- -- 79
2020-01-12 08:00:00 3.1 7 Sudoeste 15 Sudoeste 0 -- -- 85
2020-01-12 07:00:00 3.6 6 Sudoeste 14 Sudoeste 0 -- -- 86
2020-01-12 06:00:00 3.9 8 Sudoeste 17 Sudoeste 0 -- -- 88
2020-01-12 05:00:00 4.2 8 Sudoeste 14 Sudoeste 0 -- -- 90
2020-01-12 04:00:00 3.2 3 Sudoeste 5 Sudoeste 0 -- -- 91
2020-01-12 03:00:00 4.2 3 Sudoeste 7 Sudoeste 0 -- -- 89
2020-01-12 02:00:00 4.5 2 Oeste 5 Sudoeste 0 -- -- 90
2020-01-12 01:00:00 5.3 2 Sudoeste 5 Sudoeste 0 -- -- 87
2020-01-12 00:00:00 5.9 3 Oeste 4 Oeste 0 -- -- 89
2020-01-11 23:00:00 6.8 3 Sudoeste 8 Sudoeste 0 -- -- 85
2020-01-11 22:00:00 7.7 5 Sudoeste 8 Sudoeste 0 -- -- 85
2020-01-11 21:00:00 8.4 0 Calma 5 Este 0 -- -- 79
2020-01-11 20:00:00 10.4 3 Este 6 Nordeste 0 -- -- 78
2020-01-11 19:00:00 11.5 4 Nordeste 7 Nordeste 0 -- -- 73
2020-01-11 18:00:00 13.1 4 Nordeste 19 Este 0 -- -- 64
2020-01-11 17:00:00 15.3 9 Este 17 Este 0 -- -- 51
2020-01-11 16:00:00 15.6 3 Este 9 Nordeste 0 -- -- 43
2020-01-11 15:00:00 15.9 6 Este 15 Este 0 -- -- 42
2020-01-11 14:00:00 16.1 4 Este 15 Este 0 -- -- 41
2020-01-11 13:00:00 16.2 6 Este 13 Nordeste 0 -- -- 43
2020-01-11 12:00:00 14.6 8 Sudoeste 14 Sudoeste 0 -- -- 49
2020-01-11 11:00:00 12.4 4 Sudoeste 11 Sudoeste 0 -- -- 57
2020-01-11 10:00:00 9.8 6 Sudoeste 13 Sudoeste 0 -- -- 64
2020-01-11 09:00:00 8.5 5 Sudoeste 10 Sudoeste 0 -- -- 68
2020-01-11 08:00:00 9.5 4 Sudoeste 11 Sudoeste 0 -- -- 66
2020-01-11 07:00:00 10.1 3 Sudoeste 14 Sudoeste 0 -- -- 65
2020-01-11 06:00:00 11.1 3 Sur 7 Sudoeste 0 -- -- 66
2020-01-11 05:00:00 11.4 4 Sudoeste 9 Sudoeste 0 -- -- 65
2020-01-11 04:00:00 12.3 3 Oeste 14 Oeste 0 -- -- 62
2020-01-11 03:00:00 12 4 Sur 15 Norte 0 -- -- 63
2020-01-11 02:00:00 11.9 4 Nordeste 12 Norte 0 -- -- 63
2020-01-11 01:00:00 12.7 9 Norte 18 Norte 0 -- -- 59
2020-01-11 00:00:00 12.3 6 Norte 23 Norte 0 -- -- 60
2020-01-10 23:00:00 12 9 Norte 25 Norte 0 -- -- 60
2020-01-10 22:00:00 12.2 11 Norte 31 Norte 0 -- -- 59
2020-01-10 21:00:00 12.3 9 Norte 31 Norte 0 -- -- 57
2020-01-10 20:00:00 12.9 17 Norte 39 Norte 0 -- -- 55
2020-01-10 19:00:00 13.9 14 Norte 33 Nordeste 0 -- -- 49
2020-01-10 18:00:00 13.2 5 Este 20 Este 0 -- -- 70
2020-01-10 17:00:00 15.7 9 Norte 26 Nordeste 0 -- -- 47
2020-01-10 16:00:00 16.1 14 Norte 30 Norte 0 -- -- 44
2020-01-10 15:00:00 15.1 0 Calma 6 Sudoeste 0 -- -- 55
2020-01-10 14:00:00 14.3 0 Calma 5 Sudoeste 0 -- -- 60
2020-01-10 13:00:00 14 0 Calma 6 Sudoeste 0 -- -- 64
2020-01-10 12:00:00 13.1 4 Sudoeste 12 Sudoeste 0 -- -- 64
2020-01-10 11:00:00 11.7 6 Sudoeste 21 Sudoeste 0 -- -- 69
2020-01-10 10:00:00 9.5 3 Sudeste 10 Sur 0 -- -- 80
2020-01-10 09:00:00 6.6 2 Sudoeste 12 Oeste 0 -- -- 88
2020-01-10 08:00:00 6.4 7 Sudoeste 15 Sudoeste 0 -- -- 90
2020-01-10 07:00:00 6.5 5 Sudoeste 10 Sudoeste 0 -- -- 89
2020-01-10 06:00:00 6.5 3 Sur 10 Sudoeste 0 -- -- 91
2020-01-10 05:00:00 6.6 6 Sudoeste 11 Sudoeste 0 -- -- 91
2020-01-10 04:00:00 6.3 5 Sudoeste 10 Sudoeste 0 -- -- 92
2020-01-10 03:00:00 5.3 0 Calma 4 Noroeste 0 -- -- 91
2020-01-10 02:00:00 6.2 0 Calma 4 Oeste 0 -- -- 90
2020-01-10 01:00:00 5.9 2 Oeste 3 Sudoeste 0 -- -- 89
2020-01-10 00:00:00 7.4 3 Sur 6 Sudeste 0 -- -- 88
2020-01-09 23:00:00 8 0 Calma 4 Oeste 0 -- -- 86
2020-01-09 22:00:00 8.7 0 Calma 3 Sur 0 -- -- 87
2020-01-09 21:00:00 9.1 0 Calma 3 Sur 0 -- -- 83
2020-01-09 20:00:00 9.5 0 Calma 5 Noroeste 0 -- -- 81
2020-01-09 19:00:00 10.7 0 Calma 6 Sudeste 0 -- -- 77
2020-01-09 18:00:00 13.5 4 Sudeste 14 Este 0 -- -- 68
2020-01-09 17:00:00 14.8 2 Sudeste 9 Sudeste 0 -- -- 59
2020-01-09 16:00:00 15 3 Sudoeste 10 Sudoeste 0 -- -- 57
2020-01-09 15:00:00 15 3 Sudoeste 10 Sudoeste 0 -- -- 56
2020-01-09 14:00:00 15.5 2 Sur 9 Sudoeste 0 -- -- 57
2020-01-09 13:00:00 14.5 4 Sudoeste 15 Sudoeste 0 -- -- 61
2020-01-09 12:00:00 12.8 8 Sudoeste 14 Sudoeste 0 -- -- 66
2020-01-09 11:00:00 11.2 5 Sudoeste 13 Sudoeste 0 -- -- 73
2020-01-09 10:00:00 8.4 0 Calma 8 Sudoeste 0 -- -- 88
2020-01-09 09:00:00 7.9 3 Sudoeste 9 Sudoeste 0 -- -- 86
2020-01-09 08:00:00 8.6 5 Sudoeste 7 Sudoeste 0 -- -- 84
2020-01-09 07:00:00 8.8 5 Sudoeste 8 Sudoeste 0 -- -- 86
2020-01-09 06:00:00 8.9 3 Sudoeste 6 Sudoeste 0 -- -- 86
2020-01-09 05:00:00 9 0 Calma 8 Sudoeste 0 -- -- 88
2020-01-09 04:00:00 8.9 2 Norte 8 Sudoeste 0 -- -- 89
2020-01-09 03:00:00 8.9 0 Calma 6 Oeste 0 -- -- 88
2020-01-09 02:00:00 8.6 0 Calma 4 Oeste 0 -- -- 89
2020-01-09 01:00:00 8.4 2 Sudoeste 3 Sudoeste 0 -- -- 90
2020-01-09 00:00:00 8.6 0 Calma 5 Oeste 0 -- -- 88
2020-01-08 23:00:00 8.6 3 Oeste 8 Sudoeste 0 -- -- 89
2020-01-08 22:00:00 8.3 3 Sur 10 Este 0 -- -- 88
2020-01-08 21:00:00 7.9 3 Oeste 4 Sudoeste 0 -- -- 88
2020-01-08 20:00:00 8.2 2 Este 3 Este 0 -- -- 85
2020-01-08 19:00:00 9.9 0 Calma 3 Sudeste 0 -- -- 80
2020-01-08 18:00:00 12.8 2 Sudeste 12 Este 0 -- -- 74
2020-01-08 17:00:00 14.1 7 Este 18 Este 0 -- -- 69
2020-01-08 16:00:00 14.7 9 Este 19 Este 0 -- -- 68
2020-01-08 15:00:00 14.8 10 Nordeste 18 Este 0 -- -- 62
2020-01-08 14:00:00 14.3 9 Nordeste 26 Este 0 -- -- 57
2020-01-08 13:00:00 13.8 9 Nordeste 19 Nordeste 0 -- -- 64
2020-01-08 12:00:00 10.9 3 Nordeste 8 Este 0 -- -- 68
2020-01-08 11:00:00 6.2 2 Este 5 Sudoeste 0 -- -- 87
2020-01-08 10:00:00 3.6 0 Calma 3 Sudoeste 0 -- -- 93
2020-01-08 09:00:00 1.4 0 Calma 3 Sudoeste 0 -- -- 92
2020-01-08 08:00:00 2.1 0 Calma 5 Oeste 0 -- -- 92
2020-01-08 07:00:00 2.3 3 Sudoeste 6 Sudoeste 0 -- -- 91
2020-01-08 06:00:00 2.8 3 Oeste 7 Sudoeste 0 -- -- 92
2020-01-08 05:00:00 2.7 2 Oeste 4 Oeste 0 -- -- 93
2020-01-08 04:00:00 2.9 0 Calma 5 Sudoeste 0 -- -- 92
2020-01-08 03:00:00 3.1 3 Oeste 7 Sudoeste 0 -- -- 91
2020-01-08 02:00:00 3.2 0 Calma 4 Sudoeste 0 -- -- 90
2020-01-08 01:00:00 4.5 0 Calma 8 Sudoeste 0 -- -- 88
2020-01-08 00:00:00 5.5 6 Sudoeste 8 Sudoeste 0 -- -- 89
2020-01-07 23:00:00 6.1 2 Sudoeste 7 Oeste 0 -- -- 87
2020-01-07 22:00:00 5.9 3 Oeste 6 Sudoeste 0 -- -- 89
2020-01-07 21:00:00 7 0 Calma 4 Oeste 0 -- -- 85
2020-01-07 20:00:00 8.6 0 Calma 4 Nordeste 0 -- -- 83
2020-01-07 19:00:00 10.4 3 Nordeste 5 Este 0 -- -- 80
2020-01-07 18:00:00 13.2 3 Este 7 Nordeste 0 -- -- 70
2020-01-07 17:00:00 14.3 0 Calma 4 Oeste 0 -- -- 59
2020-01-07 16:00:00 14.3 0 Calma 8 Sudoeste 0 -- -- 57
2020-01-07 15:00:00 14 3 Oeste 9 Oeste 0 -- -- 58
2020-01-07 14:00:00 13.5 4 Sudoeste 8 Sudoeste 0 -- -- 62
2020-01-07 13:00:00 11.8 5 Sudoeste 8 Sudoeste 0 -- -- 66
2020-01-07 12:00:00 9 4 Sudoeste 9 Sudoeste 0 -- -- 73
2020-01-07 11:00:00 5.6 3 Sudoeste 6 Sudoeste 0 -- -- 87
2020-01-07 10:00:00 3.3 0 Calma 6 Sudoeste 0 -- -- 92
2020-01-07 09:00:00 1.8 2 Sudoeste 7 Sudoeste 0 -- -- 92
2020-01-07 08:00:00 0.7 0 Calma 2 Sudoeste 0 -- -- 91
2020-01-07 07:00:00 1.8 0 Calma 5 Oeste 0 -- -- 90
2020-01-07 06:00:00 2.9 3 Oeste 5 Oeste 0 -- -- 93
2020-01-07 05:00:00 1.8 0 Calma 4 Sudoeste 0 -- -- 91
2020-01-07 04:00:00 3.2 2 Sudoeste 5 Sudoeste 0 -- -- 90
2020-01-07 03:00:00 3.8 3 Sudoeste 5 Sudoeste 0 -- -- 91
2020-01-07 02:00:00 3.4 0 Calma 4 Sudoeste 0 -- -- 88
2020-01-07 01:00:00 4.7 2 Sudoeste 7 Sudoeste 0 -- -- 87
2020-01-07 00:00:00 5.1 0 Calma 5 Sudoeste 0 -- -- 88
2020-01-06 23:00:00 5.2 2 Oeste 3 Oeste 0 -- -- 88
2020-01-06 22:00:00 6.4 0 Calma 8 Sudoeste 0 -- -- 82
2020-01-06 21:00:00 7.5 0 Calma 5 Sudoeste 0 -- -- 83
2020-01-06 20:00:00 9 0 Calma 5 Este 0 -- -- 81
2020-01-06 19:00:00 11 3 Este 6 Nordeste 0 -- -- 76
2020-01-06 18:00:00 12.8 2 Este 8 Nordeste 0 -- -- 69
2020-01-06 17:00:00 14.4 3 Nordeste 6 Nordeste 0 -- -- 56
2020-01-06 16:00:00 14.6 3 Este 6 Nordeste 0 -- -- 55
2020-01-06 15:00:00 14 2 Este 6 Este 0 -- -- 54
2020-01-06 14:00:00 14.1 2 Sur 6 Oeste 0 -- -- 54
2020-01-06 13:00:00 12.3 4 Oeste 12 Sudoeste 0 -- -- 59
2020-01-06 12:00:00 9.7 5 Sudoeste 9 Sudoeste 0 -- -- 69
2020-01-06 11:00:00 6.3 3 Oeste 8 Sudoeste 0 -- -- 89
2020-01-06 10:00:00 3.3 2 Oeste 4 Sudoeste 0 -- -- 93